createdAt,value
2022-09-24T00:01:41.756Z,3.07
2022-09-24T00:04:12.759Z,3.07
2022-09-24T00:06:42.734Z,3.60
2022-09-24T00:09:12.544Z,2.60
2022-09-24T00:11:40.625Z,2.63
2022-09-24T00:14:08.674Z,2.93
2022-09-24T00:16:36.999Z,2.80
2022-09-24T00:19:05.485Z,2.97
2022-09-24T00:21:35.568Z,2.73
2022-09-24T00:24:06.295Z,2.63
2022-09-24T00:26:49.794Z,2.90
2022-09-24T00:29:19.712Z,3.20
2022-09-24T00:31:47.607Z,3.10
2022-09-24T00:34:15.678Z,2.63
2022-09-24T00:36:44.783Z,2.40
2022-09-24T00:39:12.594Z,2.97
2022-09-24T00:41:44.916Z,2.30
2022-09-24T00:44:54.502Z,2.73
2022-09-24T00:47:28.654Z,2.87
2022-09-24T00:50:06.149Z,2.70
2022-09-24T00:52:34.642Z,2.70
2022-09-24T00:55:02.940Z,5.40
2022-09-24T00:57:32.829Z,2.63
2022-09-24T01:00:00.775Z,2.60
2022-09-24T01:02:28.568Z,2.60
2022-09-24T01:04:56.906Z,2.87
2022-09-24T01:07:25.466Z,2.60
2022-09-24T01:09:53.396Z,2.60
2022-09-24T01:12:34.508Z,2.60
2022-09-24T01:15:18.261Z,2.60
2022-09-24T01:17:52.528Z,2.70
2022-09-24T01:20:46.335Z,2.70
2022-09-24T01:23:37.712Z,3.37
2022-09-24T01:26:24.841Z,3.53
2022-09-24T01:29:06.789Z,2.33
2022-09-24T01:31:41.829Z,2.90
2022-09-24T01:34:12.399Z,3.23
2022-09-24T01:36:41.610Z,2.40
2022-09-24T01:39:10.151Z,4.40
2022-09-24T01:41:40.056Z,2.83
2022-09-24T01:44:07.886Z,2.70
2022-09-24T01:46:39.251Z,2.97
2022-09-24T01:49:07.310Z,2.60
2022-09-24T01:51:40.974Z,2.50
2022-09-24T01:54:16.243Z,2.60
2022-09-24T01:56:48.659Z,4.10
2022-09-24T01:59:23.697Z,2.83
2022-09-24T02:01:58.202Z,2.80
2022-09-24T02:04:28.478Z,3.13
2022-09-24T02:07:01.945Z,2.93
2022-09-24T02:09:34.916Z,2.90
2022-09-24T02:12:08.059Z,2.80
2022-09-24T02:14:41.911Z,3.03
2022-09-24T02:17:12.397Z,2.53
2022-09-24T02:19:42.735Z,2.93
2022-09-24T02:22:13.771Z,3.20
2022-09-24T02:24:47.737Z,2.80
2022-09-24T02:27:15.787Z,3.30
2022-09-24T02:29:44.446Z,3.33
2022-09-24T02:32:18.483Z,3.40
2022-09-24T02:34:48.830Z,2.97
2022-09-24T02:37:17.851Z,2.93
2022-09-24T02:39:45.785Z,3.30
2022-09-24T02:42:15.646Z,3.03
2022-09-24T02:44:43.382Z,3.13
2022-09-24T02:47:11.186Z,4.00
2022-09-24T02:49:40.261Z,3.40
2022-09-24T02:52:07.999Z,3.47
2022-09-24T02:54:35.728Z,4.13
2022-09-24T02:57:03.466Z,3.30
2022-09-24T02:59:31.140Z,3.70
2022-09-24T03:01:58.910Z,3.37
2022-09-24T03:04:26.700Z,3.73
2022-09-24T03:06:55.778Z,3.40
2022-09-24T03:09:23.448Z,3.83
2022-09-24T03:11:51.280Z,3.80
2022-09-24T03:14:19.741Z,3.70
2022-09-24T03:16:47.423Z,4.07
2022-09-24T03:19:15.143Z,3.63
2022-09-24T03:21:42.846Z,3.50
2022-09-24T03:24:11.898Z,3.33
2022-09-24T03:26:40.146Z,3.80
2022-09-24T03:29:07.836Z,3.33
2022-09-24T03:31:34.710Z,3.47
2022-09-24T03:34:02.470Z,3.57
2022-09-24T03:36:31.046Z,3.37
2022-09-24T03:38:58.978Z,3.50
2022-09-24T03:41:28.542Z,3.40
2022-09-24T03:43:56.341Z,3.70
2022-09-24T03:46:30.340Z,3.73
2022-09-24T03:49:00.444Z,3.73
2022-09-24T03:51:28.386Z,6.53
2022-09-24T03:53:56.095Z,4.03
2022-09-24T03:56:24.248Z,3.43
2022-09-24T03:58:53.419Z,3.53
2022-09-24T04:01:22.099Z,3.73
2022-09-24T04:03:50.750Z,3.43
2022-09-24T04:06:24.775Z,3.80
2022-09-24T04:08:52.710Z,3.33
2022-09-24T04:11:20.422Z,3.60
2022-09-24T04:13:48.127Z,3.87
2022-09-24T04:16:18.431Z,3.70
2022-09-24T04:18:48.749Z,4.00
2022-09-24T04:21:16.493Z,3.73
2022-09-24T04:23:44.218Z,3.40
2022-09-24T04:26:12.480Z,4.20
2022-09-24T04:28:40.238Z,3.97
2022-09-24T04:31:08.072Z,4.27
2022-09-24T04:33:37.226Z,3.90
2022-09-24T04:36:05.175Z,4.00
2022-09-24T04:38:32.876Z,4.23
2022-09-24T04:41:07.023Z,3.40
2022-09-24T04:43:34.721Z,6.33
2022-09-24T04:46:02.790Z,4.70
2022-09-24T04:48:30.936Z,6.93
2022-09-24T04:50:59.970Z,4.07
2022-09-24T04:53:27.676Z,3.63
2022-09-24T04:55:55.378Z,4.33
2022-09-24T04:58:23.063Z,4.10
2022-09-24T05:00:51.219Z,3.70
2022-09-24T05:03:19.381Z,4.13
2022-09-24T05:05:47.095Z,3.87
2022-09-24T05:08:16.433Z,4.00
2022-09-24T05:10:44.288Z,3.77
2022-09-24T05:13:12.008Z,4.23
2022-09-24T05:15:42.986Z,4.27
2022-09-24T05:18:11.099Z,4.37
2022-09-24T05:20:38.805Z,4.03
2022-09-24T05:23:07.146Z,4.00
2022-09-24T05:25:56.253Z,4.30
2022-09-24T05:28:23.089Z,4.60
2022-09-24T05:30:50.924Z,4.00
2022-09-24T05:33:18.688Z,5.23
2022-09-24T05:35:46.822Z,4.50
2022-09-24T05:38:14.510Z,5.40
2022-09-24T05:40:50.552Z,4.73
2022-09-24T05:43:20.278Z,4.00
2022-09-24T05:45:49.010Z,6.73
2022-09-24T05:48:17.375Z,4.20
2022-09-24T05:50:45.109Z,4.80
2022-09-24T05:53:12.892Z,4.50
2022-09-24T05:55:40.642Z,4.37
2022-09-24T05:58:11.976Z,4.03
2022-09-24T06:00:40.805Z,4.53
2022-09-24T06:03:12.965Z,4.87
2022-09-24T06:05:44.799Z,4.57
2022-09-24T06:08:12.553Z,4.27
2022-09-24T06:10:40.265Z,4.10
2022-09-24T06:13:11.533Z,4.70
2022-09-24T06:15:40.041Z,4.37
2022-09-24T06:18:07.952Z,4.47
2022-09-24T06:20:36.114Z,4.60
2022-09-24T06:23:04.363Z,4.40
2022-09-24T06:25:32.499Z,5.07
2022-09-24T06:28:01.671Z,4.20
2022-09-24T06:30:33.660Z,4.57
2022-09-24T06:33:05.427Z,4.70
2022-09-24T06:35:35.067Z,4.93
2022-09-24T06:38:02.987Z,5.03
2022-09-24T06:40:35.656Z,5.57
2022-09-24T06:43:05.154Z,4.67
2022-09-24T06:45:34.595Z,4.73
2022-09-24T06:48:04.074Z,4.80
2022-09-24T06:50:33.090Z,4.87
2022-09-24T06:53:01.204Z,5.87
2022-09-24T06:55:28.916Z,5.50
2022-09-24T06:58:04.319Z,5.47
2022-09-24T07:00:32.130Z,5.23
2022-09-24T07:03:01.251Z,5.47
2022-09-24T07:05:28.963Z,5.87
2022-09-24T07:07:56.740Z,11.67
2022-09-24T07:10:27.420Z,8.80
2022-09-24T07:12:55.454Z,6.13
2022-09-24T07:15:23.274Z,5.43
2022-09-24T07:17:56.317Z,5.50
2022-09-24T07:20:28.205Z,6.10
2022-09-24T07:22:56.218Z,5.40
2022-09-24T07:25:24.132Z,5.80
2022-09-24T07:27:51.898Z,5.80
2022-09-24T07:30:21.874Z,5.70
2022-09-24T07:32:55.637Z,5.80
2022-09-24T07:35:24.806Z,6.00
2022-09-24T07:38:01.546Z,6.53
2022-09-24T07:40:35.587Z,5.90
2022-09-24T07:43:03.309Z,6.17
2022-09-24T07:45:32.389Z,5.77
2022-09-24T07:48:01.520Z,5.83
2022-09-24T07:50:32.609Z,7.30
2022-09-24T07:53:01.221Z,7.13
2022-09-24T07:55:29.074Z,7.70
2022-09-24T07:57:57.411Z,6.33
2022-09-24T08:00:26.066Z,6.73
2022-09-24T08:02:56.290Z,7.30
2022-09-24T08:05:24.136Z,7.97
2022-09-24T08:07:55.243Z,7.00
2022-09-24T08:10:23.077Z,7.47
2022-09-24T08:12:50.933Z,7.97
2022-09-24T08:15:19.037Z,7.20
2022-09-24T08:17:47.168Z,7.17
2022-09-24T08:20:14.841Z,7.47
2022-09-24T08:22:42.545Z,7.87
2022-09-24T08:25:11.917Z,7.63
2022-09-24T08:27:39.656Z,8.83
2022-09-24T08:30:08.757Z,9.10
2022-09-24T08:32:36.443Z,9.57
2022-09-24T08:35:04.330Z,9.53
2022-09-24T08:37:32.376Z,8.90
2022-09-24T08:40:00.128Z,9.93
2022-09-24T08:42:38.127Z,12.20
2022-09-24T08:45:24.401Z,8.93
2022-09-24T08:47:58.377Z,9.30
2022-09-24T08:50:28.943Z,10.33
2022-09-24T08:53:04.777Z,9.47
2022-09-24T08:55:37.820Z,9.67
2022-09-24T08:58:44.122Z,9.80
2022-09-24T09:01:23.508Z,10.73
2022-09-24T09:03:57.890Z,10.03
2022-09-24T09:06:48.247Z,9.50
2022-09-24T09:09:19.826Z,9.60
2022-09-24T09:11:51.479Z,10.07
2022-09-24T09:14:29.173Z,9.27
2022-09-24T09:17:03.117Z,9.33
2022-09-24T09:19:35.217Z,9.27
2022-09-24T09:22:07.964Z,10.80
2022-09-24T09:24:42.793Z,9.27
2022-09-24T09:27:14.749Z,9.10
2022-09-24T09:29:46.185Z,8.37
2022-09-24T09:32:31.917Z,8.83
2022-09-24T09:35:08.946Z,8.70
2022-09-24T09:37:43.657Z,8.67
2022-09-24T09:40:31.330Z,8.50
2022-09-24T09:43:04.625Z,8.40
2022-09-24T09:45:39.796Z,8.63
2022-09-24T09:48:12.852Z,8.53
2022-09-24T09:50:43.390Z,8.87
2022-09-24T09:53:20.949Z,10.17
2022-09-24T09:55:54.675Z,8.57
2022-09-24T09:58:25.425Z,8.47
2022-09-24T10:01:04.129Z,9.07
2022-09-24T10:03:34.602Z,8.63
2022-09-24T10:06:04.177Z,8.37
2022-09-24T10:08:32.130Z,7.17
2022-09-24T10:11:02.153Z,6.70
2022-09-24T10:13:31.653Z,8.13
2022-09-24T10:16:03.771Z,7.40
2022-09-24T10:18:35.696Z,6.90
2022-09-24T10:21:07.843Z,7.13
2022-09-24T10:23:38.765Z,6.80
2022-09-24T10:26:08.000Z,7.70
2022-09-24T10:28:58.072Z,6.20
2022-09-24T10:31:32.274Z,6.50
2022-09-24T10:34:02.492Z,5.93
2022-09-24T10:36:32.532Z,5.60
2022-09-24T10:39:05.769Z,6.17
2022-09-24T10:41:33.554Z,6.77
2022-09-24T10:44:04.791Z,6.33
2022-09-24T10:46:56.107Z,6.10
2022-09-24T10:49:35.856Z,6.30
2022-09-24T10:52:17.940Z,5.93
2022-09-24T10:54:56.260Z,6.60
2022-09-24T10:57:32.234Z,6.73
2022-09-24T11:00:08.928Z,8.40
2022-09-24T11:03:09.740Z,8.63
2022-09-24T11:05:41.903Z,6.33
2022-09-24T11:08:18.887Z,6.50
2022-09-24T11:11:00.034Z,5.20
2022-09-24T11:13:40.518Z,5.60
2022-09-24T11:16:27.888Z,6.30
2022-09-24T11:19:02.304Z,4.97
2022-09-24T11:21:44.353Z,4.97
2022-09-24T11:24:29.557Z,4.27
2022-09-24T11:27:08.149Z,4.03
2022-09-24T11:29:51.994Z,3.70
2022-09-24T11:32:30.318Z,3.47
2022-09-24T11:35:21.444Z,3.97
2022-09-24T11:38:00.501Z,3.90
2022-09-24T11:40:42.363Z,3.47
2022-09-24T11:43:29.222Z,4.17
2022-09-24T11:46:12.726Z,4.23
2022-09-24T11:49:11.141Z,4.80
2022-09-24T11:51:53.526Z,4.77
2022-09-24T11:54:27.885Z,4.80
2022-09-24T11:57:02.184Z,4.50
2022-09-24T11:59:39.943Z,4.40
2022-09-24T12:02:19.287Z,5.47
2022-09-24T12:04:58.764Z,5.97
2022-09-24T12:07:37.838Z,5.37
2022-09-24T12:10:25.060Z,4.90
2022-09-24T12:12:57.895Z,4.77
2022-09-24T12:15:31.565Z,4.57
2022-09-24T12:18:07.505Z,4.13
2022-09-24T12:20:45.204Z,4.00
2022-09-24T12:23:17.699Z,3.90
2022-09-24T12:25:48.067Z,4.07
2022-09-24T12:28:39.386Z,4.57
2022-09-24T12:31:32.709Z,3.97
2022-09-24T12:34:06.614Z,3.80
2022-09-24T12:36:57.186Z,3.73
2022-09-24T12:39:32.216Z,4.50
2022-09-24T12:42:04.563Z,5.17
2022-09-24T12:44:45.099Z,4.50
2022-09-24T12:47:21.018Z,4.40
2022-09-24T12:49:53.603Z,5.10
2022-09-24T12:52:29.544Z,4.10
2022-09-24T12:55:02.605Z,4.80
2022-09-24T12:57:35.946Z,4.77
2022-09-24T13:00:07.151Z,4.80
2022-09-24T13:02:46.565Z,4.80
2022-09-24T13:05:28.224Z,5.43
2022-09-24T13:07:58.886Z,5.33
2022-09-24T13:10:30.716Z,4.30
2022-09-24T13:13:00.905Z,4.50
2022-09-24T13:15:38.702Z,5.03
2022-09-24T13:18:24.318Z,6.47
2022-09-24T13:21:05.459Z,4.57
2022-09-24T13:23:50.274Z,4.37
2022-09-24T13:26:30.977Z,4.07
2022-09-24T13:29:01.432Z,4.07
2022-09-24T13:31:47.659Z,4.37
2022-09-24T13:34:21.068Z,4.43
2022-09-24T13:36:57.444Z,4.53
2022-09-24T13:39:29.382Z,4.23
2022-09-24T13:42:05.257Z,5.07
2022-09-24T13:44:37.302Z,4.27
2022-09-24T13:47:15.447Z,4.17
2022-09-24T13:49:47.374Z,3.77
2022-09-24T13:52:24.977Z,3.93
2022-09-24T13:54:59.129Z,3.70
2022-09-24T13:57:29.965Z,4.47
2022-09-24T14:00:15.538Z,4.30
2022-09-24T14:02:46.200Z,4.30
2022-09-24T14:05:18.639Z,4.13
2022-09-24T14:07:55.910Z,3.97
2022-09-24T14:10:24.982Z,3.57
2022-09-24T14:13:11.477Z,4.10
2022-09-24T14:15:40.370Z,3.80
2022-09-24T14:18:15.882Z,3.93
2022-09-24T14:20:43.853Z,4.20
2022-09-24T14:23:19.096Z,3.93
2022-09-24T14:25:48.681Z,4.70
2022-09-24T14:28:18.397Z,5.43
2022-09-24T14:30:52.641Z,4.37
2022-09-24T14:33:25.790Z,4.30
2022-09-24T14:35:55.434Z,4.07
2022-09-24T14:38:26.149Z,4.60
2022-09-24T14:40:58.860Z,4.60
2022-09-24T14:43:33.225Z,4.30
2022-09-24T14:46:06.882Z,4.50
2022-09-24T14:48:35.605Z,4.47
2022-09-24T14:51:04.106Z,4.63
2022-09-24T14:53:34.578Z,4.10
2022-09-24T14:56:08.303Z,4.00
2022-09-24T14:58:37.405Z,3.70
2022-09-24T15:01:08.289Z,3.57
2022-09-24T15:03:41.381Z,3.87
2022-09-24T15:06:19.126Z,3.40
2022-09-24T15:08:54.575Z,3.17
2022-09-24T15:11:27.854Z,3.90
2022-09-24T15:14:02.229Z,3.80
2022-09-24T15:16:33.582Z,3.37
2022-09-24T15:19:19.488Z,4.53
2022-09-24T15:21:48.872Z,3.70
2022-09-24T15:24:16.888Z,4.27
2022-09-24T15:26:46.755Z,3.93
2022-09-24T15:29:21.022Z,4.33
2022-09-24T15:31:48.832Z,3.70
2022-09-24T15:34:19.810Z,4.73
2022-09-24T15:36:48.176Z,4.00
2022-09-24T15:39:18.370Z,4.37
2022-09-24T15:41:46.561Z,5.10
2022-09-24T15:44:21.776Z,3.97
2022-09-24T15:46:51.107Z,4.07
2022-09-24T15:49:21.914Z,4.87
2022-09-24T15:51:51.296Z,4.40
2022-09-24T15:54:19.322Z,11.17
2022-09-24T15:56:52.213Z,4.90
2022-09-24T15:59:22.420Z,4.33
2022-09-24T16:01:52.155Z,5.23
2022-09-24T16:04:19.911Z,4.40
2022-09-24T16:06:47.678Z,5.23
2022-09-24T16:09:15.379Z,5.33
2022-09-24T16:11:43.081Z,5.60
2022-09-24T16:14:11.076Z,5.80
2022-09-24T16:16:40.985Z,6.00
2022-09-24T16:19:09.342Z,6.00
2022-09-24T16:21:37.260Z,6.23
2022-09-24T16:24:05.276Z,6.30
2022-09-24T16:26:34.391Z,5.00
2022-09-24T16:29:03.505Z,6.50
2022-09-24T16:31:31.493Z,5.77
2022-09-24T16:34:01.075Z,5.00
2022-09-24T16:36:28.808Z,5.13
2022-09-24T16:38:58.094Z,5.37
2022-09-24T16:41:25.951Z,5.87
2022-09-24T16:43:56.810Z,5.60
2022-09-24T16:46:24.792Z,5.90
2022-09-24T16:48:52.655Z,6.30
2022-09-24T16:51:22.125Z,5.90
2022-09-24T16:53:51.312Z,5.40
2022-09-24T16:56:19.026Z,5.47
2022-09-24T16:58:47.854Z,6.23
2022-09-24T17:01:17.139Z,5.93
2022-09-24T17:03:46.569Z,6.07
2022-09-24T17:06:23.080Z,6.40
2022-09-24T17:09:08.193Z,6.80
2022-09-24T17:11:35.983Z,7.17
2022-09-24T17:14:04.420Z,8.30
2022-09-24T17:16:32.127Z,8.67
2022-09-24T17:19:00.622Z,8.23
2022-09-24T17:21:29.884Z,7.53
2022-09-24T17:23:57.751Z,8.20
2022-09-24T17:26:25.665Z,8.10
2022-09-24T17:28:54.861Z,8.27
2022-09-24T17:31:24.441Z,9.07
2022-09-24T17:33:57.141Z,9.07
2022-09-24T17:36:25.837Z,8.77
2022-09-24T17:38:55.221Z,9.47
2022-09-24T17:41:23.365Z,8.97
2022-09-24T17:43:51.655Z,9.27
2022-09-24T17:46:22.424Z,9.37
2022-09-24T17:48:52.700Z,9.37
2022-09-24T17:51:23.138Z,10.03
2022-09-24T17:53:52.992Z,11.13
2022-09-24T17:56:24.703Z,10.17
2022-09-24T17:58:53.215Z,10.70
2022-09-24T18:01:24.355Z,11.43
2022-09-24T18:03:54.351Z,11.27
2022-09-24T18:06:25.062Z,10.67
2022-09-24T18:08:55.032Z,11.07
2022-09-24T18:11:25.783Z,11.33
2022-09-24T18:13:55.055Z,11.67
2022-09-24T18:16:25.462Z,11.60
2022-09-24T18:18:53.929Z,11.07
2022-09-24T18:21:23.816Z,12.00
2022-09-24T18:23:54.010Z,11.73
2022-09-24T18:26:25.190Z,11.77
2022-09-24T18:28:54.182Z,11.00
2022-09-24T18:31:24.452Z,10.70
2022-09-24T18:33:54.128Z,11.57
2022-09-24T18:36:23.444Z,12.10
2022-09-24T18:38:51.214Z,12.60
2022-09-24T18:41:21.632Z,12.00
2022-09-24T18:43:51.170Z,12.63
2022-09-24T18:46:20.658Z,12.77
2022-09-24T18:48:50.883Z,12.53
2022-09-24T18:51:20.730Z,12.63
2022-09-24T18:53:53.540Z,12.47
2022-09-24T18:56:21.721Z,13.00
2022-09-24T18:58:56.627Z,13.30
2022-09-24T19:01:24.482Z,12.30
2022-09-24T19:03:52.826Z,13.50
2022-09-24T19:06:20.752Z,14.50
2022-09-24T19:08:49.080Z,14.20
2022-09-24T19:11:18.314Z,14.63
2022-09-24T19:13:51.419Z,14.33
2022-09-24T19:16:20.937Z,14.00
2022-09-24T19:18:48.653Z,15.90
2022-09-24T19:21:16.897Z,15.73
2022-09-24T19:23:46.906Z,16.43
2022-09-24T19:26:16.596Z,18.37
2022-09-24T19:28:45.368Z,21.50
2022-09-24T19:31:20.329Z,19.80
2022-09-24T19:33:48.330Z,19.90
2022-09-24T19:36:17.260Z,17.93
2022-09-24T19:38:45.629Z,17.30
2022-09-24T19:41:15.268Z,17.43
2022-09-24T19:43:44.062Z,15.67
2022-09-24T19:46:14.576Z,29.60
2022-09-24T19:48:45.662Z,17.23
2022-09-24T19:51:16.266Z,17.93
2022-09-24T19:53:44.459Z,20.83
2022-09-24T19:56:13.263Z,15.63
2022-09-24T19:58:41.825Z,15.77
2022-09-24T20:01:14.850Z,15.67
2022-09-24T20:03:46.092Z,14.93
2022-09-24T20:06:15.428Z,14.57
2022-09-24T20:08:43.512Z,13.77
2022-09-24T20:11:14.937Z,13.30
2022-09-24T20:13:46.308Z,13.07
2022-09-24T20:16:15.577Z,13.33
2022-09-24T20:18:43.752Z,13.53
2022-09-24T20:21:13.431Z,14.23
2022-09-24T20:23:41.481Z,13.57
2022-09-24T20:26:28.853Z,13.67
2022-09-24T20:28:56.813Z,13.70
2022-09-24T20:31:25.352Z,13.03
2022-09-24T20:33:53.431Z,12.97
2022-09-24T20:36:24.757Z,12.60
2022-09-24T20:38:53.357Z,12.77
2022-09-24T20:41:24.298Z,11.77
2022-09-24T20:43:55.503Z,14.73
2022-09-24T20:46:25.031Z,13.30
2022-09-24T20:48:53.191Z,12.40
2022-09-24T20:51:22.949Z,12.63
2022-09-24T20:53:51.088Z,12.53
2022-09-24T20:56:19.641Z,11.83
2022-09-24T20:58:50.139Z,12.70
2022-09-24T21:01:18.636Z,13.17
2022-09-24T21:03:49.837Z,14.03
2022-09-24T21:06:19.320Z,12.90
2022-09-24T21:08:48.478Z,12.87
2022-09-24T21:11:19.054Z,13.57
2022-09-24T21:13:49.041Z,14.63
2022-09-24T21:16:19.806Z,14.10
2022-09-24T21:18:48.830Z,13.87
2022-09-24T21:21:18.694Z,14.00
2022-09-24T21:23:49.562Z,13.83
2022-09-24T21:26:19.530Z,13.90
2022-09-24T21:28:48.462Z,13.83
2022-09-24T21:31:17.124Z,13.47
2022-09-24T21:33:47.078Z,13.37
2022-09-24T21:36:19.353Z,13.00
2022-09-24T21:38:54.243Z,13.77
2022-09-24T21:41:22.636Z,13.60
2022-09-24T21:43:50.338Z,14.23
2022-09-24T21:46:18.061Z,14.07
2022-09-24T21:48:45.909Z,13.60
2022-09-24T21:51:19.384Z,14.13
2022-09-24T21:53:49.191Z,14.63
2022-09-24T21:56:18.861Z,13.27
2022-09-24T21:58:47.037Z,14.87
2022-09-24T22:01:18.117Z,13.20
2022-09-24T22:03:47.095Z,14.63
2022-09-24T22:06:15.459Z,14.17
2022-09-24T22:08:44.924Z,14.47
2022-09-24T22:11:15.134Z,14.77
2022-09-24T22:13:43.072Z,14.77
2022-09-24T22:16:12.125Z,14.20
2022-09-24T22:18:40.694Z,14.30
2022-09-24T22:21:10.568Z,14.47
2022-09-24T22:23:38.839Z,13.00
2022-09-24T22:26:08.039Z,14.37
2022-09-24T22:28:37.946Z,15.30
2022-09-24T22:31:08.068Z,14.97
2022-09-24T22:33:53.219Z,14.33
2022-09-24T22:36:21.252Z,13.93
2022-09-24T22:38:49.307Z,14.23
2022-09-24T22:41:17.084Z,14.03
2022-09-24T22:43:46.271Z,14.33
2022-09-24T22:46:14.642Z,14.97
2022-09-24T22:48:42.410Z,14.10
2022-09-24T22:51:10.799Z,14.40
2022-09-24T22:53:40.508Z,15.13
2022-09-24T22:56:09.948Z,15.23
2022-09-24T22:58:39.931Z,13.53
2022-09-24T23:01:11.033Z,14.37
2022-09-24T23:03:39.518Z,17.07
2022-09-24T23:06:08.627Z,14.93
2022-09-24T23:08:39.302Z,14.37
2022-09-24T23:11:09.076Z,15.90
2022-09-24T23:13:37.481Z,15.70
2022-09-24T23:16:12.133Z,16.63
2022-09-24T23:18:40.624Z,16.80
2022-09-24T23:21:10.688Z,16.13
2022-09-24T23:23:38.757Z,16.50
2022-09-24T23:26:16.219Z,15.67
2022-09-24T23:28:45.545Z,16.20
2022-09-24T23:31:16.155Z,17.47
2022-09-24T23:33:44.094Z,17.30
2022-09-24T23:36:13.722Z,19.20
2022-09-24T23:38:42.878Z,18.57
2022-09-24T23:41:13.103Z,20.30
2022-09-24T23:43:42.344Z,18.83
2022-09-24T23:46:10.685Z,19.27
2022-09-24T23:48:40.546Z,19.63
2022-09-24T23:51:09.136Z,20.30
2022-09-24T23:53:37.967Z,21.17
2022-09-24T23:56:07.923Z,19.90
2022-09-24T23:58:36.386Z,20.57
